Time;durP1;ratioP1;P1;durP2;ratioP2;P2;SDS_P1;SDS_P2;PMS_P1;PMS_P2;Temp;Humidity;BMP_temperature;BMP_pressure;BME280_temperature;BME280_humidity;BME280_pressure;Samples;Min_cycle;Max_cycle;Signal;HPM_P1;HPM_P2
2021/12/22 00:00:32;;;;;;;14.40;6.17;;;;;;;-1.50;73.10;100371.72;4940830;29;20177;-84
2021/12/22 00:02:58;;;;;;;14.27;7.53;;;;;;;-2.30;73.37;100241.53;4925466;29;20248;-84
2021/12/22 00:05:29;;;;;;;14.60;7.15;;;;;;;-1.58;73.68;100377.47;4946236;29;20217;-83
2021/12/22 00:07:55;;;;;;;15.68;7.38;;;;;;;-1.93;72.94;100315.06;4937266;29;20368;-84
2021/12/22 00:10:21;;;;;;;15.37;7.93;;;;;;;-1.90;73.02;100312.03;4937365;29;20193;-83
2021/12/22 00:12:49;;;;;;;12.65;7.00;;;;;;;-1.45;71.75;100383.00;4939167;29;20193;-83
2021/12/22 00:15:15;;;;;;;11.23;5.65;;;;;;;-1.52;72.10;100385.56;4958442;29;20192;-84
2021/12/22 00:17:41;;;;;;;11.35;5.53;;;;;;;-3.34;71.65;100088.31;4960513;28;20185;-84
2021/12/22 00:20:11;;;;;;;14.47;5.77;;;;;;;-1.53;71.97;100371.38;4959871;29;20711;-83
2021/12/22 00:22:37;;;;;;;10.35;4.97;;;;;;;-1.49;71.60;100378.44;4959192;28;20165;-83
2021/12/22 00:25:03;;;;;;;12.07;5.43;;;;;;;-1.58;71.56;100379.94;4959183;28;20220;-80
2021/12/22 00:27:30;;;;;;;14.50;7.07;;;;;;;-3.50;71.91;100079.97;4960612;29;20177;-83
2021/12/22 00:29:56;;;;;;;12.77;6.22;;;;;;;-1.75;72.24;100372.31;4957242;29;20670;-84
2021/12/22 00:32:26;;;;;;;15.17;6.77;;;;;;;-1.55;72.10;100387.72;4958221;28;20283;-83
2021/12/22 00:34:55;;;;;;;10.05;5.03;;;;;;;-1.66;71.60;100381.63;4957081;28;20247;-83
2021/12/22 00:37:24;;;;;;;12.90;5.70;;;;;;;-1.65;71.22;100385.00;4958127;29;20165;-85
2021/12/22 00:39:50;;;;;;;10.70;6.05;;;;;;;-1.65;71.13;100385.00;4957910;28;20191;-82
2021/12/22 00:42:17;;;;;;;9.48;5.25;;;;;;;-1.66;71.63;100388.19;4956926;29;20200;-83
2021/12/22 00:44:47;;;;;;;9.23;5.03;;;;;;;-4.04;70.64;99971.00;4957685;28;20176;-83
2021/12/22 00:47:13;;;;;;;11.00;5.78;;;;;;;-3.94;70.58;99990.16;4972543;28;20191;-84
2021/12/22 00:49:39;;;;;;;15.00;7.03;;;;;;;-5.52;70.80;99720.94;4971701;28;20208;-83
2021/12/22 00:52:06;;;;;;;15.83;8.30;;;;;;;-2.87;70.87;100213.88;4956037;29;20188;-83
2021/12/22 00:54:31;;;;;;;9.05;5.18;;;;;;;-1.57;70.30;100389.16;4955771;29;20239;-83
2021/12/22 00:57:04;;;;;;;13.77;6.67;;;;;;;-4.50;69.84;99897.50;4955995;29;20263;-83
2021/12/22 00:59:31;;;;;;;11.55;6.30;;;;;;;-3.79;70.50;100042.16;4957484;28;20171;-82
2021/12/22 01:01:57;;;;;;;10.35;5.93;;;;;;;-3.69;70.66;100032.56;4957728;28;20662;-82
2021/12/22 01:04:23;;;;;;;13.00;6.03;;;;;;;-2.46;71.03;100261.34;4957407;28;20279;-83
2021/12/22 01:06:48;;;;;;;13.87;7.17;;;;;;;-1.68;70.95;100394.59;4972258;28;20370;-83
2021/12/22 01:09:14;;;;;;;15.90;6.83;;;;;;;-3.68;71.32;100085.41;4956615;29;20199;-82
2021/12/22 01:11:40;;;;;;;13.40;7.33;;;;;;;-1.78;71.43;100405.13;4956092;29;20196;-82
2021/12/22 01:14:06;;;;;;;18.47;9.27;;;;;;;-2.29;71.95;100317.69;4956703;28;20725;-83
2021/12/22 01:16:32;;;;;;;15.15;7.15;;;;;;;-3.87;72.44;100071.75;4956793;29;20176;-83
2021/12/22 01:19:03;;;;;;;14.03;7.23;;;;;;;-5.49;72.98;99802.63;4975021;28;20675;-82
2021/12/22 01:21:46;;;;;;;9.52;5.05;;;;;;;-3.49;73.25;100155.97;4977384;28;20183;-83
2021/12/22 01:27:09;;;;;;;12.48;6.53;;;;;;;-2.90;72.77;100240.78;4935425;29;20189;-82
2021/12/22 01:29:37;;;;;;;13.07;6.25;;;;;;;-2.01;72.88;100396.84;4935153;29;20298;-83
2021/12/22 01:32:03;;;;;;;12.43;6.55;;;;;;;-2.36;73.40;100335.97;4935150;29;20186;-83
2021/12/22 01:34:29;;;;;;;11.48;6.18;;;;;;;-2.46;73.75;100349.00;4934716;29;20271;-83
2021/12/22 01:36:56;;;;;;;11.40;5.93;;;;;;;-2.29;74.77;100389.59;4934115;29;20564;-83
2021/12/22 01:39:23;;;;;;;10.85;5.20;;;;;;;-3.30;75.52;100203.41;4917957;29;20189;-84
2021/12/22 01:41:49;;;;;;;11.20;5.90;;;;;;;-3.42;75.37;100220.25;4933964;29;20225;-83
2021/12/22 01:44:33;;;;;;;10.43;6.10;;;;;;;-2.25;75.83;100386.75;4933992;29;20725;-85
2021/12/22 01:49:53;;;;;;;8.98;5.53;;;;;;;-3.48;76.51;100202.25;4933861;29;20173;-84
2021/12/22 01:52:21;;;;;;;11.95;5.70;;;;;;;-2.40;76.95;100384.38;4933756;29;20188;-84
2021/12/22 01:55:27;;;;;;;11.90;6.07;;;;;;;-2.51;77.93;100388.84;4932909;29;20212;-84
2021/12/22 01:57:52;;;;;;;11.27;5.18;;;;;;;-2.57;78.02;100385.69;4877364;29;20199;-83
2021/12/22 02:00:21;;;;;;;11.13;5.53;;;;;;;-5.69;77.96;99858.72;4878254;29;20263;-84
2021/12/22 02:02:48;;;;;;;14.10;6.63;;;;;;;-2.59;78.08;100380.59;4881952;29;20335;-83
2021/12/22 02:05:13;;;;;;;13.20;5.55;;;;;;;-3.46;78.31;100232.97;4899087;29;20212;-83
2021/12/22 02:07:39;;;;;;;12.73;6.60;;;;;;;-6.32;78.64;99752.94;4899169;29;20202;-83
2021/12/22 02:12:48;;;;;;;14.32;6.85;;;;;;;-3.50;79.70;100245.75;4901906;29;20206;-82
2021/12/22 02:15:15;;;;;;;17.75;7.25;;;;;;;-2.75;79.29;100376.25;4902312;29;20273;-82
2021/12/22 02:17:42;;;;;;;14.77;6.93;;;;;;;-3.27;79.89;100291.22;4900891;29;20179;-82
2021/12/22 02:20:10;;;;;;;24.20;9.10;;;;;;;-3.34;79.76;100273.94;4899300;29;20226;-81
2021/12/22 02:22:37;;;;;;;17.27;8.02;;;;;;;-3.50;79.19;100275.44;4899160;29;20190;-83
2021/12/22 02:25:12;;;;;;;15.93;7.15;;;;;;;-3.14;79.74;100319.13;4883711;29;20289;-83
2021/12/22 02:27:44;;;;;;;20.10;7.57;;;;;;;-3.63;79.71;100232.75;4898914;29;20809;-83
2021/12/22 02:30:22;;;;;;;14.55;6.90;;;;;;;-2.82;78.98;100378.75;4898841;29;20238;-83
2021/12/22 02:35:39;;;;;;;34.88;12.00;;;;;;;-2.86;79.65;100372.59;4977736;28;20255;-84
2021/12/22 02:38:12;;;;;;;29.42;11.00;;;;;;;-4.73;79.67;100070.34;4977746;28;20176;-83
2021/12/22 02:40:38;;;;;;;12.07;5.35;;;;;;;-2.91;79.87;100368.72;4977599;28;20169;-83
2021/12/22 02:43:05;;;;;;;22.10;8.80;;;;;;;-3.39;79.13;100274.16;4997387;28;20188;-82
2021/12/22 02:45:33;;;;;;;37.63;12.70;;;;;;;-4.30;79.10;100138.66;4982601;28;20572;-82
2021/12/22 02:47:59;;;;;;;19.70;6.68;;;;;;;-4.36;77.99;100100.91;4977481;28;20603;-82
2021/12/22 02:50:25;;;;;;;45.13;14.87;;;;;;;-2.67;77.33;100371.44;4977625;28;20180;-83
2021/12/22 02:53:04;;;;;;;32.77;12.37;;;;;;;-3.75;77.05;100197.63;4977265;28;20156;-83
2021/12/22 02:55:42;;;;;;;44.78;12.80;;;;;;;-3.26;76.96;100272.31;4977189;28;20156;-83
2021/12/22 02:58:11;;;;;;;82.57;23.27;;;;;;;-2.59;76.60;100372.28;4976325;28;20168;-83
2021/12/22 03:03:27;;;;;;;18.35;8.30;;;;;;;-2.57;76.71;100375.78;4977650;28;20171;-83
2021/12/22 03:05:53;;;;;;;160.52;53.80;;;;;;;-2.99;76.75;100319.91;4977351;28;20184;-83
2021/12/22 03:08:19;;;;;;;49.57;26.07;;;;;;;-3.70;77.39;100191.59;4975563;28;20195;-83
2021/12/22 03:10:44;;;;;;;18.27;9.10;;;;;;;-3.97;77.31;100144.00;4978649;28;20188;-83
2021/12/22 03:13:10;;;;;;;16.03;8.07;;;;;;;-6.35;78.30;99723.03;4974673;28;20669;-82
2021/12/22 03:15:35;;;;;;;18.67;9.47;;;;;;;-3.58;78.80;100216.81;4976885;28;20645;-82
2021/12/22 03:18:02;;;;;;;12.30;6.93;;;;;;;-3.53;78.75;100218.19;4976393;28;20262;-82
2021/12/22 03:20:27;;;;;;;37.92;16.45;;;;;;;-5.65;78.51;99875.59;4977063;28;20181;-82
2021/12/22 03:22:53;;;;;;;23.00;11.60;;;;;;;-3.37;78.58;100235.59;4978902;28;20165;-82
2021/12/22 03:25:25;;;;;;;14.33;7.60;;;;;;;-3.39;78.01;100237.91;4979105;28;20191;-82
2021/12/22 03:27:52;;;;;;;15.23;7.25;;;;;;;-5.18;77.48;99925.34;4978177;28;20157;-82
2021/12/22 03:30:24;;;;;;;13.90;7.75;;;;;;;-2.68;76.97;100366.28;4976919;28;20231;-82
2021/12/22 03:32:50;;;;;;;15.13;8.15;;;;;;;-4.82;76.12;100019.91;4977571;28;20182;-82
2021/12/22 03:35:18;;;;;;;20.23;11.00;;;;;;;-2.56;76.00;100387.47;4977279;28;20176;-82
2021/12/22 03:37:49;;;;;;;25.35;12.45;;;;;;;-5.47;76.32;99871.88;4977557;28;20160;-82
2021/12/22 03:40:14;;;;;;;37.05;17.77;;;;;;;-4.10;76.28;100107.88;4977692;28;20156;-82
2021/12/22 03:42:40;;;;;;;26.90;11.93;;;;;;;-3.20;76.60;100265.56;4976863;28;20196;-82
2021/12/22 03:45:06;;;;;;;40.77;17.43;;;;;;;-3.59;76.58;100219.97;4977138;28;20282;-82
2021/12/22 03:47:31;;;;;;;50.47;22.37;;;;;;;-4.73;76.71;100011.06;4977073;28;20165;-82
2021/12/22 03:49:57;;;;;;;21.93;11.43;;;;;;;-4.82;76.62;100013.38;4975632;28;20164;-82
2021/12/22 03:52:22;;;;;;;15.53;7.60;;;;;;;-5.68;77.16;99875.25;4976421;28;20176;-82
2021/12/22 03:54:54;;;;;;;13.27;6.93;;;;;;;-3.62;77.48;100254.28;4976574;28;20228;-82
2021/12/22 03:57:20;;;;;;;11.45;6.20;;;;;;;-3.40;77.86;100317.81;4976505;28;20317;-82
2021/12/22 03:59:45;;;;;;;11.73;6.20;;;;;;;-4.94;77.66;100043.19;4976249;28;20231;-84
2021/12/22 04:02:12;;;;;;;11.50;5.90;;;;;;;-4.46;77.77;100117.88;4976528;28;20219;-81
2021/12/22 04:04:37;;;;;;;12.13;6.20;;;;;;;-5.95;77.60;99882.03;4977132;28;20156;-82
2021/12/22 04:07:03;;;;;;;11.00;6.23;;;;;;;-6.05;78.21;99882.56;4978693;28;20172;-83
2021/12/22 04:09:28;;;;;;;18.57;9.40;;;;;;;-4.43;78.77;100130.59;4976857;28;20164;-81
2021/12/22 04:11:55;;;;;;;88.83;36.60;;;;;;;-2.85;77.68;100398.22;4974973;28;20180;-82
2021/12/22 04:14:20;;;;;;;186.32;73.85;;;;;;;-3.68;77.99;100263.50;4975525;28;20168;-82
2021/12/22 04:16:47;;;;;;;139.37;52.60;;;;;;;-6.00;78.65;99892.94;4975669;28;20175;-82
2021/12/22 04:19:12;;;;;;;230.10;85.45;;;;;;;-4.46;78.66;100131.81;4981416;28;20166;-81
2021/12/22 04:21:37;;;;;;;107.67;44.63;;;;;;;-3.65;79.08;100276.19;4990117;28;20220;-82
2021/12/22 04:24:05;;;;;;;47.60;23.53;;;;;;;-2.92;79.81;100405.72;4978379;28;20286;-82
2021/12/22 04:26:32;;;;;;;24.92;10.85;;;;;;;-4.74;80.56;100139.28;4974110;28;20704;-82
2021/12/22 04:28:59;;;;;;;26.88;12.40;;;;;;;-3.32;81.59;100405.28;4975617;28;20215;-84
2021/12/22 04:31:25;;;;;;;29.40;13.55;;;;;;;-5.73;81.69;99981.44;4975398;28;20330;-82
2021/12/22 04:33:51;;;;;;;314.13;83.27;;;;;;;-5.69;81.82;99995.91;4975596;28;20668;-82
2021/12/22 04:36:16;;;;;;;92.73;29.87;;;;;;;-4.06;82.00;100296.25;4976130;28;20227;-82
2021/12/22 04:38:42;;;;;;;31.60;13.17;;;;;;;-6.74;82.76;99853.16;4976756;28;20226;-82
2021/12/22 04:41:07;;;;;;;32.87;14.03;;;;;;;-3.85;82.48;100376.97;4975976;28;20251;-82
2021/12/22 04:43:33;;;;;;;39.97;16.50;;;;;;;-5.20;82.21;100101.06;4975363;28;20164;-83
2021/12/22 04:45:59;;;;;;;34.97;15.33;;;;;;;-3.93;82.06;100338.09;4989946;28;20589;-82
2021/12/22 04:48:24;;;;;;;48.07;21.30;;;;;;;-4.32;82.41;100253.75;4975484;28;20191;-83
2021/12/22 04:50:50;;;;;;;77.63;33.20;;;;;;;-4.07;82.81;100274.72;4975197;28;20172;-83
2021/12/22 04:53:21;;;;;;;69.47;27.65;;;;;;;-5.58;82.06;100011.22;4975164;28;20175;-81
2021/12/22 04:55:47;;;;;;;57.33;23.83;;;;;;;-5.47;82.89;100044.50;4975144;28;20175;-81
2021/12/22 04:58:12;;;;;;;79.67;33.67;;;;;;;-3.22;82.76;100428.81;4975308;28;20172;-83
2021/12/22 05:00:39;;;;;;;52.33;20.07;;;;;;;-4.00;82.80;100298.53;4975321;28;20187;-81
2021/12/22 05:03:05;;;;;;;50.47;19.63;;;;;;;-3.77;82.65;100336.66;4974031;28;20251;-82
2021/12/22 05:05:33;;;;;;;62.55;23.55;;;;;;;-3.91;82.81;100302.06;4975155;28;20196;-83
2021/12/22 05:07:59;;;;;;;68.97;23.52;;;;;;;-3.30;83.71;100427.06;4975079;28;20170;-84
2021/12/22 05:10:26;;;;;;;79.32;33.88;;;;;;;-3.28;82.78;100439.59;4974499;28;20172;-83
2021/12/22 05:12:52;;;;;;;65.53;27.50;;;;;;;-4.29;82.63;100246.69;4974484;28;20164;-82
2021/12/22 05:15:20;;;;;;;67.07;23.97;;;;;;;-4.17;82.66;100255.50;4974887;28;20192;-82
2021/12/22 05:20:15;;;;;;;58.03;22.05;;;;;;;-3.22;83.48;100436.22;4974545;28;20255;-82
2021/12/22 05:22:41;;;;;;;34.00;15.25;;;;;;;-4.70;83.18;100180.91;4974594;28;20617;-82
2021/12/22 05:25:09;;;;;;;52.55;20.67;;;;;;;-3.13;83.69;100442.19;4974822;28;20667;-82
2021/12/22 05:27:36;;;;;;;47.80;20.85;;;;;;;-5.04;83.64;100124.31;4974453;28;20557;-82
2021/12/22 05:30:04;;;;;;;44.88;17.77;;;;;;;-3.90;84.39;100349.22;4974133;28;20223;-82
2021/12/22 05:32:32;;;;;;;31.02;14.68;;;;;;;-6.60;84.07;99896.59;4972957;28;20184;-82
2021/12/22 05:35:00;;;;;;;47.78;23.05;;;;;;;-3.40;85.66;100451.47;4973957;28;20160;-82
2021/12/22 05:37:25;;;;;;;74.97;31.42;;;;;;;-3.27;85.25;100439.75;4974730;28;20160;-82
2021/12/22 05:39:51;;;;;;;125.40;43.63;;;;;;;-3.77;84.63;100384.56;4974771;28;20168;-82
2021/12/22 05:42:16;;;;;;;222.50;65.30;;;;;;;-3.21;84.57;100450.38;4974758;28;20168;-83
2021/12/22 05:44:45;;;;;;;190.10;58.33;;;;;;;-3.75;85.26;100355.03;4974186;28;20179;-82
2021/12/22 05:47:10;;;;;;;145.00;53.42;;;;;;;-5.02;84.29;100143.53;4974129;28;20272;-82
2021/12/22 05:49:36;;;;;;;113.97;42.27;;;;;;;-6.25;84.53;99953.28;4974585;28;20172;-82
2021/12/22 05:52:02;;;;;;;137.17;50.87;;;;;;;-3.29;85.31;100456.03;4974513;28;20191;-82
2021/12/22 05:54:27;;;;;;;114.03;44.63;;;;;;;-5.80;85.05;100030.75;4976891;28;20168;-83
2021/12/22 05:56:53;;;;;;;188.90;69.37;;;;;;;-6.10;84.01;99952.59;4983498;28;20227;-85
2021/12/22 05:59:18;;;;;;;137.90;53.97;;;;;;;-5.12;83.84;100127.50;4986997;28;20164;-83
2021/12/22 06:01:43;;;;;;;85.90;37.57;;;;;;;-5.69;85.40;100069.88;4977695;28;20164;-82
2021/12/22 06:04:09;;;;;;;87.00;36.43;;;;;;;-3.24;86.04;100469.81;4975135;28;20164;-82
2021/12/22 06:06:34;;;;;;;84.77;37.57;;;;;;;-4.98;85.80;100176.88;4974979;28;20575;-82
2021/12/22 06:09:00;;;;;;;100.53;39.07;;;;;;;-6.59;85.27;99891.84;4975109;28;20191;-82
2021/12/22 06:11:25;;;;;;;73.93;29.43;;;;;;;-3.14;83.90;100469.28;4975122;28;20197;-82
2021/12/22 06:13:50;;;;;;;48.23;22.03;;;;;;;-3.19;82.80;100498.47;4972986;28;20179;-82
2021/12/22 06:16:17;;;;;;;42.07;17.13;;;;;;;-3.32;81.12;100467.16;4974232;28;20156;-82
2021/12/22 06:18:44;;;;;;;37.95;17.15;;;;;;;-5.62;80.25;100060.88;4974083;28;20168;-82
2021/12/22 06:21:16;;;;;;;43.03;17.38;;;;;;;-3.77;79.71;100398.50;4973774;28;20219;-82
2021/12/22 06:23:41;;;;;;;68.93;26.35;;;;;;;-6.30;79.28;99954.34;4974113;28;20255;-83
2021/12/22 06:26:07;;;;;;;61.53;24.40;;;;;;;-2.52;78.12;100496.13;4973827;28;20279;-82
2021/12/22 06:28:32;;;;;;;38.83;16.97;;;;;;;-2.57;75.92;100426.25;4973136;28;20180;-82
2021/12/22 06:30:58;;;;;;;24.17;11.10;;;;;;;-2.38;75.03;100451.44;4972454;28;20721;-82
2021/12/22 06:33:23;;;;;;;31.50;14.53;;;;;;;-5.37;74.23;99907.59;4967216;28;20185;-83
2021/12/22 06:35:49;;;;;;;30.53;13.87;;;;;;;-1.40;73.50;100483.72;4969133;28;20406;-81
2021/12/22 06:38:15;;;;;;;95.13;32.50;;;;;;;-4.19;71.75;99962.81;4973973;28;20227;-82
2021/12/22 06:40:41;;;;;;;46.03;18.13;;;;;;;-3.64;72.24;100119.63;4962383;28;20208;-83
2021/12/22 06:43:07;;;;;;;36.00;15.57;;;;;;;-4.61;73.00;99965.50;4953092;29;20633;-82
2021/12/22 06:45:33;;;;;;;68.00;23.67;;;;;;;-3.52;72.98;100138.31;4954118;28;20200;-83
2021/12/22 06:47:58;;;;;;;51.80;19.90;;;;;;;-4.32;72.11;99974.53;4957702;28;20621;-82
2021/12/22 06:50:24;;;;;;;50.57;20.00;;;;;;;-1.62;73.27;100492.06;4957376;28;20195;-84
2021/12/22 06:52:49;;;;;;;31.73;13.10;;;;;;;-3.00;72.63;100283.50;4965168;28;20195;-83
2021/12/22 06:55:15;;;;;;;53.30;20.83;;;;;;;-4.30;72.11;99975.56;4977677;28;20239;-82
2021/12/22 06:57:40;;;;;;;32.43;14.97;;;;;;;-3.69;69.86;100061.38;4948655;29;20193;-82
2021/12/22 07:00:09;;;;;;;36.93;17.93;;;;;;;-4.04;69.87;99928.09;4957568;28;20631;-82
2021/12/22 07:02:37;;;;;;;48.65;20.95;;;;;;;-2.85;67.17;100016.78;4955918;28;20184;-82
2021/12/22 07:05:05;;;;;;;59.22;26.98;;;;;;;-1.90;63.87;99898.63;4957443;28;20192;-82
2021/12/22 07:07:31;;;;;;;44.63;20.27;;;;;;;2.66;59.08;100462.97;4957578;28;20360;-83
2021/12/22 07:09:56;;;;;;;34.50;16.60;;;;;;;0.63;59.50;100188.50;4968685;28;20196;-83
2021/12/22 07:12:22;;;;;;;33.43;15.20;;;;;;;1.82;58.37;100348.53;4977171;28;20517;-82
2021/12/22 07:14:47;;;;;;;53.07;24.80;;;;;;;1.46;60.01;100341.00;4977068;28;20547;-82
2021/12/22 07:17:13;;;;;;;92.20;40.43;;;;;;;2.45;57.14;100384.41;4977085;28;20628;-82
2021/12/22 07:19:39;;;;;;;81.50;37.55;;;;;;;2.48;57.62;100327.22;4976615;28;20215;-83
2021/12/22 07:22:05;;;;;;;68.37;34.97;;;;;;;2.51;58.15;100399.97;4973092;28;20194;-83
2021/12/22 07:24:32;;;;;;;70.87;33.77;;;;;;;1.23;59.59;100311.44;4957520;28;20161;-83
2021/12/22 07:26:58;;;;;;;60.37;27.00;;;;;;;1.01;62.74;100504.59;4957169;28;20459;-82
2021/12/22 07:29:23;;;;;;;50.77;24.10;;;;;;;-2.90;63.99;99861.84;4956870;29;20416;-82
2021/12/22 07:31:49;;;;;;;101.23;42.17;;;;;;;0.09;65.12;100416.47;4957339;28;20164;-84
2021/12/22 07:34:34;;;;;;;70.53;31.07;;;;;;;0.34;67.49;100492.00;4956933;28;20670;-83
2021/12/22 07:37:41;;;;;;;59.42;26.77;;;;;;;0.41;66.00;100457.06;4956360;29;20192;-84
2021/12/22 07:40:28;;;;;;;85.05;37.20;;;;;;;-2.57;66.63;100013.97;4917098;29;20647;-82
2021/12/22 07:42:54;;;;;;;69.70;31.10;;;;;;;-0.44;66.29;100376.22;4930116;29;20205;-85
2021/12/22 07:45:19;;;;;;;58.97;26.93;;;;;;;-1.21;66.16;100199.31;4939519;29;20228;-83
2021/12/22 07:47:45;;;;;;;96.23;42.80;;;;;;;0.29;65.51;100396.94;4947314;29;20189;-84
2021/12/22 07:50:11;;;;;;;80.07;35.67;;;;;;;1.11;63.36;100494.75;4938138;29;20189;-84
2021/12/22 07:52:36;;;;;;;49.47;24.83;;;;;;;0.99;61.76;100433.75;4920151;29;20556;-83
2021/12/22 07:55:04;;;;;;;37.23;17.73;;;;;;;0.28;62.08;100384.31;4935684;29;20274;-83
2021/12/22 07:57:29;;;;;;;44.58;21.13;;;;;;;-0.07;61.38;100253.91;4935168;29;20173;-82
2021/12/22 07:59:55;;;;;;;50.87;23.33;;;;;;;-0.73;60.78;100142.09;4935421;29;20268;-83
2021/12/22 08:02:20;;;;;;;52.53;24.53;;;;;;;-0.26;59.71;100184.06;4935092;29;20204;-82
2021/12/22 08:04:46;;;;;;;53.23;26.07;;;;;;;-0.02;60.01;100193.03;4934970;29;20197;-82
2021/12/22 08:07:11;;;;;;;68.80;35.23;;;;;;;1.70;59.92;100453.97;4918945;29;20366;-82
2021/12/22 08:09:37;;;;;;;59.80;26.40;;;;;;;1.39;60.03;100379.47;4919208;29;20193;-82
2021/12/22 08:12:06;;;;;;;42.40;21.40;;;;;;;2.16;60.64;100501.66;4970702;28;20193;-83
2021/12/22 08:14:38;;;;;;;52.23;24.33;;;;;;;2.34;60.06;100479.97;4938825;29;20204;-82
2021/12/22 08:17:05;;;;;;;60.80;30.67;;;;;;;0.44;58.99;100118.66;4938424;29;20437;-83
2021/12/22 08:19:30;;;;;;;69.83;31.77;;;;;;;1.47;59.03;100336.16;4953904;29;20849;-83
2021/12/22 08:21:56;;;;;;;33.83;17.23;;;;;;;1.56;59.85;100374.47;4954372;29;20512;-82
2021/12/22 08:24:23;;;;;;;37.27;18.63;;;;;;;2.40;59.72;100500.53;4954832;28;20229;-82
2021/12/22 08:26:50;;;;;;;64.07;28.67;;;;;;;2.87;58.64;100507.41;4956161;28;20201;-82
2021/12/22 08:29:17;;;;;;;47.30;21.27;;;;;;;2.94;58.16;100515.59;4956002;28;20481;-82
2021/12/22 08:31:43;;;;;;;46.70;21.13;;;;;;;3.04;58.46;100497.31;4955890;29;20455;-83
2021/12/22 08:34:10;;;;;;;23.47;11.83;;;;;;;2.14;58.19;100380.72;4940468;29;20865;-84
2021/12/22 08:39:23;;;;;;;25.17;12.27;;;;;;;2.49;59.07;100456.41;4956440;29;20503;-83
2021/12/22 08:41:49;;;;;;;31.93;13.77;;;;;;;1.84;58.02;100304.66;4955826;28;20452;-83
2021/12/22 08:44:18;;;;;;;27.53;13.83;;;;;;;1.67;57.65;100274.03;4954906;28;20188;-82
2021/12/22 08:46:50;;;;;;;29.00;16.35;;;;;;;1.75;57.74;100299.69;4969478;28;20445;-82
2021/12/22 08:49:17;;;;;;;26.50;12.20;;;;;;;3.09;57.83;100510.22;4974903;28;20656;-84
2021/12/22 08:51:43;;;;;;;28.97;13.10;;;;;;;2.34;57.86;100398.41;4974940;28;20435;-83
2021/12/22 08:54:08;;;;;;;49.87;25.97;;;;;;;1.83;57.56;100275.41;4973113;28;20439;-84
2021/12/22 08:56:40;;;;;;;41.37;21.03;;;;;;;1.46;56.85;100161.38;4973480;28;20263;-82
2021/12/22 08:59:09;;;;;;;31.57;16.27;;;;;;;2.12;56.18;100174.94;4974924;28;20201;-83
2021/12/22 09:01:35;;;;;;;29.87;15.77;;;;;;;4.10;54.93;100499.25;4974910;28;20451;-83
2021/12/22 09:04:00;;;;;;;40.43;19.33;;;;;;;2.95;55.16;100284.78;4957945;28;20534;-83
2021/12/22 09:06:27;;;;;;;34.30;16.43;;;;;;;2.39;54.38;100097.41;4978638;28;20215;-84
2021/12/22 09:08:53;;;;;;;35.17;17.13;;;;;;;2.85;54.14;100178.84;4978098;28;20286;-83
2021/12/22 09:11:20;;;;;;;53.57;26.03;;;;;;;3.25;54.78;100273.16;4975743;28;20514;-82
2021/12/22 09:13:46;;;;;;;49.63;23.83;;;;;;;4.26;53.74;100381.16;4963012;28;20647;-83
2021/12/22 09:16:12;;;;;;;40.10;19.03;;;;;;;2.72;53.85;100116.91;4970182;28;20451;-83
2021/12/22 09:18:38;;;;;;;34.60;17.77;;;;;;;4.76;53.15;100481.53;4973172;28;20497;-84
2021/12/22 09:21:06;;;;;;;27.03;13.97;;;;;;;4.62;54.09;100479.47;4974444;28;20450;-83
2021/12/22 09:23:33;;;;;;;25.60;13.40;;;;;;;4.10;53.95;100382.38;4974505;28;20184;-83
2021/12/22 09:25:59;;;;;;;26.13;14.03;;;;;;;2.96;53.98;100159.03;4961203;28;20466;-84
2021/12/22 09:28:25;;;;;;;63.40;30.50;;;;;;;3.41;52.93;100129.47;4955358;28;20920;-83
2021/12/22 09:30:57;;;;;;;37.07;18.80;;;;;;;3.11;52.25;100083.50;4955455;29;20491;-81
2021/12/22 09:33:25;;;;;;;37.93;19.63;;;;;;;4.13;51.17;100286.53;4972954;28;20609;-83
2021/12/22 09:35:52;;;;;;;34.13;16.13;;;;;;;3.85;51.30;100148.13;4972564;28;20966;-82
2021/12/22 09:38:18;;;;;;;38.10;20.10;;;;;;;4.95;51.49;100288.22;4973921;28;20426;-83
2021/12/22 09:40:45;;;;;;;33.40;17.80;;;;;;;2.86;51.32;99953.94;4967893;28;20852;-83
2021/12/22 09:43:10;;;;;;;31.80;16.93;;;;;;;5.52;51.09;100380.69;4953604;29;20207;-83
2021/12/22 09:45:44;;;;;;;23.40;13.17;;;;;;;4.65;51.47;100407.91;4952870;28;20494;-83
2021/12/22 09:53:27;;;;;;;56.57;24.97;;;;;;;4.55;49.16;100359.38;4940105;29;20182;-81
2021/12/22 09:55:55;;;;;;;48.00;20.63;;;;;;;5.47;48.84;100448.88;4937603;29;20944;-82
2021/12/22 09:58:22;;;;;;;48.03;22.87;;;;;;;4.05;48.69;100182.31;4935748;29;20440;-83
2021/12/22 10:00:49;;;;;;;95.53;35.67;;;;;;;4.93;49.15;100372.53;4935731;29;20428;-84
2021/12/22 10:03:25;;;;;;;24.87;14.50;;;;;;;5.05;49.76;100443.78;4919956;29;20516;-83
2021/12/22 10:05:51;;;;;;;23.07;12.10;;;;;;;4.50;50.74;100436.75;4903609;29;20477;-83
2021/12/22 10:08:18;;;;;;;85.57;35.13;;;;;;;5.00;50.91;100437.53;4915805;29;20445;-83
2021/12/22 10:10:47;;;;;;;108.43;48.47;;;;;;;5.13;50.14;100385.06;4918476;29;20492;-82
2021/12/22 10:13:16;;;;;;;49.20;24.77;;;;;;;2.92;48.60;100026.09;4911658;29;20497;-83
2021/12/22 10:15:42;;;;;;;48.27;25.37;;;;;;;5.33;48.93;100437.72;4930705;29;20815;-84
2021/12/22 10:18:33;;;;;;;20.57;10.57;;;;;;;2.58;49.90;99991.53;4919295;29;20981;-83
2021/12/22 10:21:17;;;;;;;30.00;16.40;;;;;;;4.25;49.73;100276.66;4855647;29;20441;-83
2021/12/22 10:23:54;;;;;;;33.73;17.40;;;;;;;5.05;50.23;100402.03;4853818;29;20464;-85
2021/12/22 10:26:23;;;;;;;27.80;14.37;;;;;;;5.21;49.80;100430.09;4881703;29;21042;-85
2021/12/22 10:28:55;;;;;;;112.50;44.50;;;;;;;5.60;49.69;100427.41;4882053;29;20933;-85
2021/12/22 10:31:33;;;;;;;14.17;7.93;;;;;;;3.09;49.53;100115.03;4913104;29;20883;-85
2021/12/22 10:34:00;;;;;;;18.70;8.83;;;;;;;3.07;51.17;100196.56;4902867;29;20447;-85
2021/12/22 10:36:26;;;;;;;29.10;15.03;;;;;;;3.88;50.28;100202.59;4902358;29;20464;-84
2021/12/22 10:39:00;;;;;;;24.40;13.37;;;;;;;2.84;49.57;100044.56;4902644;29;20843;-83
2021/12/22 10:41:30;;;;;;;13.37;7.57;;;;;;;5.49;48.72;100422.28;4918001;29;20208;-85
2021/12/22 10:43:57;;;;;;;37.00;18.97;;;;;;;3.61;48.83;100160.28;4916296;29;20442;-84
2021/12/22 10:46:31;;;;;;;13.00;7.27;;;;;;;4.74;48.73;100427.84;4916366;29;20914;-86
2021/12/22 10:49:20;;;;;;;40.53;20.50;;;;;;;4.96;49.84;100406.28;4886048;29;20843;-84
2021/12/22 10:52:00;;;;;;;21.93;11.83;;;;;;;4.37;49.53;100337.81;4915484;29;20954;-82
2021/12/22 10:54:39;;;;;;;20.77;11.23;;;;;;;5.10;49.40;100400.75;4896728;29;20430;-83
2021/12/22 10:57:13;;;;;;;34.87;16.33;;;;;;;2.82;49.44;100009.47;4923498;28;20432;-85
2021/12/22 10:59:45;;;;;;;25.70;13.00;;;;;;;3.76;48.80;100099.81;4966003;28;20411;-83
2021/12/22 11:02:18;;;;;;;31.77;16.60;;;;;;;4.71;49.31;100262.06;4968589;28;20452;-85
2021/12/22 11:04:45;;;;;;;54.47;24.13;;;;;;;4.05;48.50;100118.06;4966487;28;20412;-83
2021/12/22 11:07:24;;;;;;;28.93;14.90;;;;;;;2.54;49.23;99875.47;4965845;28;20495;-84
2021/12/22 11:09:52;;;;;;;14.63;7.90;;;;;;;5.61;48.76;100328.66;4962849;28;20795;-82
2021/12/22 11:12:17;;;;;;;17.33;9.10;;;;;;;5.23;49.41;100362.44;4959628;28;20478;-84
2021/12/22 11:14:50;;;;;;;22.20;11.80;;;;;;;2.94;51.31;100134.59;4958714;29;20424;-82
2021/12/22 11:17:20;;;;;;;15.80;8.57;;;;;;;5.09;50.10;100368.88;4957963;28;20633;-82
2021/12/22 11:20:03;;;;;;;14.67;8.40;;;;;;;5.05;50.62;100368.50;4960659;28;20416;-87
2021/12/22 11:23:00;;;;;;;7.20;4.43;;;;;;;3.95;49.60;100160.66;4959271;28;20408;-84
2021/12/22 11:25:27;;;;;;;11.67;7.20;;;;;;;4.12;49.32;100134.47;4942071;29;20852;-85
2021/12/22 11:27:55;;;;;;;16.93;9.80;;;;;;;5.60;49.33;100367.13;4971625;28;20411;-84
2021/12/22 11:30:26;;;;;;;19.40;9.73;;;;;;;5.20;49.28;100296.94;4975792;28;20478;-83
2021/12/22 11:32:52;;;;;;;16.07;8.40;;;;;;;3.82;49.11;100055.22;4977267;28;20439;-86
2021/12/22 11:35:18;;;;;;;89.53;40.43;;;;;;;5.84;48.80;100379.06;4977778;28;20396;-83
2021/12/22 11:37:44;;;;;;;34.67;18.43;;;;;;;4.47;48.87;100169.84;4976152;28;20411;-83
2021/12/22 11:40:12;;;;;;;21.53;12.70;;;;;;;5.92;49.12;100359.59;4969510;28;20176;-83
2021/12/22 11:42:39;;;;;;;23.25;12.38;;;;;;;2.93;49.19;99861.22;4956602;29;21019;-85